Time;durP1;ratioP1;P1;durP2;ratioP2;P2;SDS_P1;SDS_P2;PMS_P1;PMS_P2;Temp;Humidity;BMP_temperature;BMP_pressure;BME280_temperature;BME280_humidity;BME280_pressure;Samples;Min_cycle;Max_cycle;Signal;HPM_P1;HPM_P2
2022/07/01 00:02:20;;;;;;;2.08;0.98;;;19.80;82.40;;;;;;4940409;28;20268;-69
2022/07/01 00:04:46;;;;;;;1.30;0.80;;;19.90;80.40;;;;;;4940987;28;20035;-68
2022/07/01 00:07:12;;;;;;;1.45;1.08;;;19.90;80.40;;;;;;4942666;28;20122;-69
2022/07/01 00:09:38;;;;;;;1.00;0.90;;;20.00;80.60;;;;;;4940870;28;20063;-68
2022/07/01 00:12:05;;;;;;;1.20;0.93;;;20.00;80.50;;;;;;4939471;28;20268;-68
2022/07/01 00:14:31;;;;;;;1.80;0.95;;;20.00;80.20;;;;;;4939382;28;20035;-67
2022/07/01 00:16:57;;;;;;;1.20;1.05;;;20.00;80.00;;;;;;4941615;28;20039;-68
2022/07/01 00:19:24;;;;;;;1.75;1.10;;;20.00;79.80;;;;;;4941897;28;20047;-68
2022/07/01 00:21:50;;;;;;;1.35;1.02;;;20.00;79.90;;;;;;4941751;28;20040;-69
2022/07/01 00:24:16;;;;;;;2.45;1.20;;;20.00;79.70;;;;;;4940350;28;20039;-66
2022/07/01 00:26:41;;;;;;;5.07;1.00;;;20.00;79.80;;;;;;4942943;28;20066;-69
2022/07/01 00:29:07;;;;;;;3.60;1.10;;;20.00;79.80;;;;;;4942967;28;20047;-69
2022/07/01 00:31:33;;;;;;;1.80;0.90;;;20.00;79.80;;;;;;4942397;28;20047;-68
2022/07/01 00:33:58;;;;;;;1.83;0.93;;;20.00;79.80;;;;;;4941269;28;20410;-67
2022/07/01 00:36:24;;;;;;;1.17;1.00;;;20.00;79.80;;;;;;4944911;28;20712;-68
2022/07/01 00:38:49;;;;;;;2.63;0.90;;;20.00;79.80;;;;;;4939089;28;20070;-69
2022/07/01 00:41:16;;;;;;;1.55;0.85;;;20.00;79.60;;;;;;4941722;28;20043;-68
2022/07/01 00:43:41;;;;;;;1.20;1.00;;;20.00;79.60;;;;;;4940420;28;20043;-69
2022/07/01 00:46:08;;;;;;;1.58;1.05;;;20.00;79.60;;;;;;4939311;28;20415;-68
2022/07/01 00:48:35;;;;;;;1.17;0.88;;;20.00;79.80;;;;;;4941134;28;20039;-68
2022/07/01 00:51:01;;;;;;;2.20;1.20;;;20.00;79.80;;;;;;4954895;28;20043;-68
2022/07/01 00:53:28;;;;;;;1.92;1.20;;;20.00;80.00;;;;;;4942768;28;20442;-68
2022/07/01 00:55:53;;;;;;;1.35;1.10;;;19.90;80.10;;;;;;4944254;28;20039;-68
2022/07/01 00:58:19;;;;;;;4.30;1.40;;;20.00;80.20;;;;;;4945738;28;20039;-68
2022/07/01 01:00:44;;;;;;;1.30;1.20;;;19.90;80.10;;;;;;4943885;28;20083;-68
2022/07/01 01:03:10;;;;;;;2.78;1.05;;;19.90;80.50;;;;;;4942718;28;20043;-67
2022/07/01 01:05:37;;;;;;;1.20;1.10;;;20.00;80.60;;;;;;4941716;28;20035;-68
2022/07/01 01:08:03;;;;;;;1.10;1.00;;;20.00;80.50;;;;;;4945894;28;20031;-68
2022/07/01 01:10:30;;;;;;;1.65;1.05;;;20.00;80.30;;;;;;4944887;28;20490;-68
2022/07/01 01:12:57;;;;;;;1.52;1.20;;;20.00;80.10;;;;;;4944850;28;20039;-68
2022/07/01 01:15:23;;;;;;;2.05;1.17;;;20.00;80.10;;;;;;4960367;28;20039;-68
2022/07/01 01:17:49;;;;;;;2.42;1.20;;;20.00;80.30;;;;;;4943325;28;20451;-68
2022/07/01 01:20:16;;;;;;;1.20;1.10;;;20.00;80.30;;;;;;4942476;28;20097;-68
2022/07/01 01:22:43;;;;;;;1.42;1.13;;;20.00;80.10;;;;;;4942914;28;20035;-68
2022/07/01 01:25:09;;;;;;;1.90;1.05;;;20.10;80.10;;;;;;4942450;28;20070;-68
2022/07/01 01:27:36;;;;;;;1.27;1.00;;;20.10;80.00;;;;;;4946592;28;20067;-68
2022/07/01 01:30:04;;;;;;;1.17;1.08;;;20.10;79.90;;;;;;4948018;28;20065;-69
2022/07/01 01:32:30;;;;;;;0.95;0.90;;;20.10;79.80;;;;;;4947600;28;20507;-68
2022/07/01 01:34:56;;;;;;;1.13;1.08;;;20.10;79.80;;;;;;4945363;28;20045;-68
2022/07/01 01:37:22;;;;;;;0.73;0.73;;;20.10;79.80;;;;;;4942808;28;20032;-68
2022/07/01 01:39:47;;;;;;;1.60;1.10;;;20.10;79.60;;;;;;4944661;28;20031;-68
2022/07/01 01:42:13;;;;;;;0.80;0.77;;;20.10;79.40;;;;;;4941908;28;20668;-68
2022/07/01 01:44:38;;;;;;;1.70;0.70;;;20.10;79.30;;;;;;4945510;28;20046;-68
2022/07/01 01:47:04;;;;;;;0.70;0.70;;;20.10;78.90;;;;;;4943574;28;20404;-68
2022/07/01 01:49:30;;;;;;;0.47;0.47;;;20.00;78.70;;;;;;4944106;28;20391;-69
2022/07/01 01:51:59;;;;;;;1.85;0.65;;;20.00;78.60;;;;;;4942912;28;20071;-68
2022/07/01 01:54:25;;;;;;;0.90;0.60;;;19.90;78.60;;;;;;4943373;28;20039;-68
2022/07/01 01:56:51;;;;;;;0.68;0.50;;;19.90;78.40;;;;;;4943271;28;20506;-68
2022/07/01 01:59:17;;;;;;;0.88;0.60;;;19.80;78.40;;;;;;4943570;28;20046;-69
2022/07/01 02:01:42;;;;;;;2.15;0.40;;;19.80;78.60;;;;;;4941307;28;20054;-68
2022/07/01 02:04:08;;;;;;;0.80;0.47;;;19.80;78.60;;;;;;4945367;28;20038;-69
2022/07/01 02:06:34;;;;;;;2.20;0.52;;;19.80;78.60;;;;;;4943518;28;20470;-69
2022/07/01 02:08:59;;;;;;;0.60;0.40;;;19.80;78.60;;;;;;4944720;28;20047;-69
2022/07/01 02:11:25;;;;;;;1.20;0.47;;;19.70;78.30;;;;;;4940045;28;20047;-68
2022/07/01 02:13:50;;;;;;;1.20;0.45;;;19.70;78.40;;;;;;4942808;28;20134;-68
2022/07/01 02:16:16;;;;;;;0.43;0.30;;;19.60;78.40;;;;;;4943370;28;20042;-68
2022/07/01 02:18:42;;;;;;;0.52;0.40;;;19.60;78.50;;;;;;4943561;28;20035;-68
2022/07/01 02:21:07;;;;;;;1.13;0.50;;;19.60;78.50;;;;;;4944104;28;20507;-68
2022/07/01 02:23:33;;;;;;;0.82;0.40;;;19.50;78.10;;;;;;4944020;28;20047;-68
2022/07/01 02:25:58;;;;;;;1.83;0.40;;;19.50;78.10;;;;;;4943798;28;20062;-69
2022/07/01 02:28:24;;;;;;;0.80;0.60;;;19.40;78.10;;;;;;4943570;28;20533;-67
2022/07/01 02:30:50;;;;;;;0.43;0.40;;;19.30;78.00;;;;;;4942624;28;20106;-68
2022/07/01 02:33:15;;;;;;;1.10;0.40;;;19.20;77.70;;;;;;4941537;28;20043;-69
2022/07/01 02:35:41;;;;;;;2.03;0.70;;;19.20;77.90;;;;;;4941245;28;20038;-69
2022/07/01 02:38:08;;;;;;;0.30;0.30;;;19.00;78.40;;;;;;4942233;28;20047;-69
2022/07/01 02:40:37;;;;;;;0.70;0.40;;;18.90;78.80;;;;;;4942648;28;20392;-69
2022/07/01 02:43:04;;;;;;;0.40;0.40;;;18.80;78.90;;;;;;4940452;28;20463;-69
2022/07/01 02:45:30;;;;;;;0.82;0.50;;;18.80;79.40;;;;;;4940254;28;20043;-69
2022/07/01 02:47:55;;;;;;;0.95;0.50;;;18.70;79.80;;;;;;4943739;28;20035;-69
2022/07/01 02:50:21;;;;;;;1.15;0.52;;;18.60;79.60;;;;;;4943978;28;20325;-69
2022/07/01 02:52:46;;;;;;;1.00;0.70;;;18.60;79.70;;;;;;4939507;28;20032;-67
2022/07/01 02:55:13;;;;;;;0.90;0.40;;;18.50;80.00;;;;;;4943896;28;20039;-69
2022/07/01 02:57:41;;;;;;;0.90;0.50;;;18.50;80.20;;;;;;4941675;28;20067;-68
2022/07/01 03:00:12;;;;;;;3.35;0.52;;;18.40;80.60;;;;;;4942931;28;20451;-69
2022/07/01 03:02:38;;;;;;;0.85;0.60;;;18.40;81.70;;;;;;4940343;28;20036;-69
2022/07/01 03:05:04;;;;;;;0.80;0.55;;;18.40;81.40;;;;;;4939503;28;20039;-68
2022/07/01 03:07:30;;;;;;;2.20;0.57;;;18.50;81.60;;;;;;4941951;28;20039;-68
2022/07/01 03:09:56;;;;;;;1.17;0.80;;;18.50;81.50;;;;;;4941431;28;20058;-69
2022/07/01 03:12:24;;;;;;;1.60;0.65;;;18.40;81.20;;;;;;4940738;28;20055;-68
2022/07/01 03:14:56;;;;;;;0.93;0.50;;;18.50;81.20;;;;;;4942869;28;20209;-68
2022/07/01 03:17:23;;;;;;;2.28;0.45;;;18.40;81.20;;;;;;4942259;28;20039;-69
2022/07/01 03:19:51;;;;;;;0.93;0.60;;;18.40;81.20;;;;;;4941180;28;20046;-68
2022/07/01 03:22:18;;;;;;;0.80;0.50;;;18.30;81.30;;;;;;4942678;28;20142;-68
2022/07/01 03:24:43;;;;;;;0.60;0.50;;;18.20;81.60;;;;;;4940057;28;20074;-67
2022/07/01 03:27:09;;;;;;;0.52;0.52;;;18.20;81.90;;;;;;4944889;28;20067;-68
2022/07/01 03:29:35;;;;;;;2.65;0.60;;;18.20;82.10;;;;;;4941953;28;20133;-68
2022/07/01 03:32:01;;;;;;;0.50;0.50;;;18.10;82.20;;;;;;4940560;28;20495;-68
2022/07/01 03:34:26;;;;;;;1.15;0.60;;;18.10;82.00;;;;;;4943982;28;20503;-68
2022/07/01 03:36:52;;;;;;;1.58;0.50;;;18.10;82.30;;;;;;4943887;28;20102;-68
2022/07/01 03:39:17;;;;;;;1.27;0.68;;;18.10;82.40;;;;;;4944013;28;20035;-68
2022/07/01 03:41:44;;;;;;;0.90;0.60;;;18.10;82.60;;;;;;4943460;28;20043;-68
2022/07/01 03:44:09;;;;;;;0.85;0.60;;;18.10;82.70;;;;;;4943716;28;20370;-68
2022/07/01 03:46:35;;;;;;;3.88;0.50;;;18.10;82.80;;;;;;4944574;28;20403;-68
2022/07/01 03:49:02;;;;;;;1.48;0.68;;;18.10;82.90;;;;;;4941416;28;20094;-68
2022/07/01 03:51:28;;;;;;;4.38;0.60;;;18.10;82.90;;;;;;4941739;28;20369;-68
2022/07/01 03:56:38;;;;;;;0.50;0.50;;;18.10;83.00;;;;;;4940389;28;20186;-68
2022/07/01 03:59:03;;;;;;;1.60;0.50;;;18.10;82.80;;;;;;4945259;28;20122;-68
2022/07/01 04:01:29;;;;;;;3.55;0.47;;;18.00;82.20;;;;;;4943483;28;20569;-68
2022/07/01 04:03:55;;;;;;;0.20;0.20;;;17.90;81.70;;;;;;4942837;28;20050;-68
2022/07/01 04:06:21;;;;;;;0.65;0.50;;;17.80;81.50;;;;;;4942734;28;20194;-68
2022/07/01 04:08:48;;;;;;;0.52;0.47;;;17.70;81.50;;;;;;4943583;28;20040;-67
2022/07/01 04:11:15;;;;;;;0.40;0.40;;;17.60;81.70;;;;;;4939279;28;20526;-68
2022/07/01 04:13:40;;;;;;;0.43;0.30;;;17.60;82.00;;;;;;4942866;28;20047;-68
2022/07/01 04:16:06;;;;;;;1.85;0.43;;;17.40;82.20;;;;;;4943030;28;20054;-68
2022/07/01 04:18:33;;;;;;;0.93;0.50;;;17.40;82.30;;;;;;4941316;28;20031;-68
2022/07/01 04:23:43;;;;;;;1.13;0.30;;;17.20;82.50;;;;;;4940529;28;20046;-68
2022/07/01 04:26:09;;;;;;;1.80;0.30;;;17.10;82.40;;;;;;4939632;28;20040;-69
2022/07/01 04:28:34;;;;;;;0.40;0.40;;;17.10;82.40;;;;;;4939941;28;20098;-68
2022/07/01 04:31:00;;;;;;;0.30;0.30;;;17.00;82.30;;;;;;4944771;28;20066;-69
2022/07/01 04:33:26;;;;;;;2.15;0.50;;;16.80;82.10;;;;;;4948672;28;20093;-68
2022/07/01 04:35:52;;;;;;;0.82;0.40;;;16.90;82.40;;;;;;4949076;28;20051;-68
2022/07/01 04:38:17;;;;;;;1.08;0.50;;;16.80;82.60;;;;;;4950639;28;20039;-68
2022/07/01 04:41:58;;;;;;;0.95;0.45;;;16.80;82.90;;;;;;4948114;28;20523;-68
2022/07/01 04:43:29;;;;;;;0.70;0.50;;;16.70;82.90;;;;;;4948169;28;20078;-67
2022/07/01 04:45:55;;;;;;;0.40;0.40;;;16.70;83.30;;;;;;4947620;28;20063;-69
2022/07/01 04:48:20;;;;;;;0.65;0.40;;;16.70;83.50;;;;;;4949295;28;20606;-68
2022/07/01 04:50:46;;;;;;;0.73;0.50;;;16.60;83.60;;;;;;4948057;28;20043;-68
2022/07/01 04:53:13;;;;;;;0.40;0.40;;;16.60;83.40;;;;;;4946396;28;20039;-69
2022/07/01 04:55:39;;;;;;;1.33;0.32;;;16.60;84.10;;;;;;4947245;28;20050;-68
2022/07/01 04:58:04;;;;;;;1.65;0.40;;;16.50;82.90;;;;;;4946565;28;20031;-69
2022/07/01 05:00:30;;;;;;;0.82;0.50;;;16.50;82.80;;;;;;4947909;28;20050;-68
2022/07/01 05:02:56;;;;;;;1.75;0.40;;;16.40;83.70;;;;;;4948272;28;20043;-68
2022/07/01 05:05:21;;;;;;;3.22;0.55;;;16.40;83.20;;;;;;4946557;28;20031;-68
2022/07/01 05:07:47;;;;;;;0.82;0.50;;;16.40;83.30;;;;;;4948980;28;20063;-66
2022/07/01 05:10:13;;;;;;;0.32;0.32;;;16.30;83.10;;;;;;4947095;28;20071;-68
2022/07/01 05:12:38;;;;;;;0.65;0.50;;;16.30;83.10;;;;;;4943443;28;20042;-68
2022/07/01 05:15:05;;;;;;;0.47;0.47;;;16.30;83.40;;;;;;4949698;28;20040;-68
2022/07/01 05:22:59;;;;;;;0.90;0.50;;;16.30;83.10;;;;;;4946832;28;20122;-68
2022/07/01 05:25:25;;;;;;;0.50;0.43;;;16.20;82.80;;;;;;4948370;28;20489;-68
2022/07/01 05:27:50;;;;;;;0.82;0.40;;;16.20;82.90;;;;;;4946119;28;20479;-67
2022/07/01 05:30:16;;;;;;;1.63;0.47;;;16.20;83.20;;;;;;4945998;28;20043;-68
2022/07/01 05:32:41;;;;;;;1.48;0.45;;;16.10;83.40;;;;;;4947604;28;20494;-68
2022/07/01 05:35:07;;;;;;;0.88;0.47;;;16.10;83.50;;;;;;4948357;28;20105;-68
2022/07/01 05:37:33;;;;;;;1.83;0.70;;;16.10;83.80;;;;;;4948391;28;20031;-67
2022/07/01 05:39:58;;;;;;;0.70;0.40;;;16.10;84.40;;;;;;4947555;28;20066;-68
2022/07/01 05:42:25;;;;;;;1.85;0.70;;;16.10;84.80;;;;;;4946998;28;20035;-67
2022/07/01 05:44:50;;;;;;;0.55;0.55;;;16.10;84.80;;;;;;4947533;28;20067;-69
2022/07/01 05:47:16;;;;;;;1.05;0.80;;;16.10;84.60;;;;;;4947745;28;20137;-68
2022/07/01 05:49:41;;;;;;;0.85;0.60;;;16.20;84.60;;;;;;4946608;28;20034;-68
2022/07/01 05:52:07;;;;;;;1.08;0.55;;;16.20;84.50;;;;;;4946745;28;20036;-68
2022/07/01 05:54:33;;;;;;;1.25;0.85;;;16.20;85.50;;;;;;4946634;28;20229;-68
2022/07/01 05:56:58;;;;;;;0.70;0.70;;;16.30;84.30;;;;;;4945083;28;20454;-69
2022/07/01 05:59:24;;;;;;;0.55;0.55;;;16.30;83.90;;;;;;4961453;28;20146;-68
2022/07/01 06:01:50;;;;;;;1.77;0.60;;;16.40;84.00;;;;;;4947298;28;20503;-68
2022/07/01 06:04:16;;;;;;;1.75;0.60;;;16.40;84.00;;;;;;4945348;28;20039;-68
2022/07/01 06:06:42;;;;;;;1.02;0.45;;;16.40;83.80;;;;;;4947868;28;20042;-68
2022/07/01 06:09:08;;;;;;;1.45;0.40;;;16.40;83.60;;;;;;4949219;28;20054;-68
2022/07/01 06:11:33;;;;;;;0.65;0.30;;;16.40;83.80;;;;;;4945292;28;20105;-68
2022/07/01 06:13:59;;;;;;;0.28;0.20;;;16.50;83.90;;;;;;4942504;28;20122;-68
2022/07/01 06:16:25;;;;;;;1.27;0.63;;;16.50;83.80;;;;;;4946532;28;20035;-68
2022/07/01 06:18:50;;;;;;;0.10;0.10;;;16.60;83.70;;;;;;4948117;28;20039;-68
2022/07/01 06:21:16;;;;;;;0.95;0.30;;;16.60;83.70;;;;;;4946694;28;20035;-68
2022/07/01 06:23:42;;;;;;;0.75;0.30;;;16.70;83.60;;;;;;4947380;28;20249;-68
2022/07/01 06:26:08;;;;;;;0.30;0.30;;;16.70;83.30;;;;;;4948079;28;20035;-68
2022/07/01 06:28:33;;;;;;;0.40;0.40;;;16.70;83.00;;;;;;4944418;28;20499;-68
2022/07/01 06:30:59;;;;;;;0.20;0.20;;;16.80;82.90;;;;;;4946674;28;20531;-68
2022/07/01 06:33:27;;;;;;;0.45;0.25;;;16.80;82.80;;;;;;4948220;28;20086;-68
2022/07/01 06:35:52;;;;;;;0.20;0.17;;;16.80;82.90;;;;;;4949442;28;20042;-68
2022/07/01 06:38:18;;;;;;;0.77;0.20;;;16.80;82.80;;;;;;4948826;28;20120;-68
2022/07/01 06:41:26;;;;;;;0.25;0.25;;;16.80;82.50;;;;;;4948376;28;20043;-68
2022/07/01 06:43:29;;;;;;;0.50;0.28;;;16.90;82.30;;;;;;4944579;28;20650;-68
2022/07/01 06:45:55;;;;;;;0.65;0.30;;;16.90;82.40;;;;;;4943281;28;20138;-68
2022/07/01 06:48:20;;;;;;;0.25;0.20;;;16.90;82.70;;;;;;4947227;28;20407;-68
2022/07/01 06:50:46;;;;;;;0.30;0.22;;;16.90;82.80;;;;;;4945983;28;20418;-68
2022/07/01 06:53:11;;;;;;;0.35;0.30;;;16.90;82.70;;;;;;4946170;28;20410;-68
2022/07/01 06:55:37;;;;;;;0.50;0.40;;;16.90;82.40;;;;;;4946090;28;20118;-69
2022/07/01 06:58:04;;;;;;;0.15;0.15;;;17.00;82.00;;;;;;4947748;28;20040;-68
2022/07/01 07:00:29;;;;;;;0.20;0.20;;;17.00;81.70;;;;;;4944821;28;20506;-68
2022/07/01 07:02:55;;;;;;;1.08;0.20;;;17.00;81.50;;;;;;4945076;28;20101;-67
2022/07/01 07:05:20;;;;;;;0.20;0.20;;;17.00;81.50;;;;;;4946724;28;20039;-69
2022/07/01 07:07:46;;;;;;;0.60;0.10;;;16.90;81.40;;;;;;4946387;28;20530;-68
2022/07/01 07:10:12;;;;;;;0.13;0.13;;;16.90;81.50;;;;;;4944168;28;20089;-68
2022/07/01 07:12:37;;;;;;;0.98;0.17;;;16.90;81.70;;;;;;4945465;28;20568;-68
2022/07/01 07:15:03;;;;;;;1.45;0.10;;;16.80;81.70;;;;;;4947736;28;20051;-68
2022/07/01 07:17:29;;;;;;;0.30;0.20;;;16.90;81.50;;;;;;4945069;28;20038;-68
2022/07/01 07:19:55;;;;;;;0.30;0.20;;;16.90;81.70;;;;;;4944781;28;20035;-67
2022/07/01 07:22:21;;;;;;;0.50;0.10;;;16.90;81.90;;;;;;4959902;28;20036;-67
2022/07/01 07:24:46;;;;;;;0.73;0.10;;;16.90;81.80;;;;;;4946574;28;20043;-69
2022/07/01 07:27:12;;;;;;;0.10;0.10;;;16.90;81.70;;;;;;4944773;28;20039;-68
2022/07/01 07:29:37;;;;;;;1.00;0.10;;;16.90;81.50;;;;;;4945495;28;20043;-67
2022/07/01 07:32:03;;;;;;;0.20;0.10;;;16.80;81.10;;;;;;4944502;28;20494;-67
2022/07/01 07:34:29;;;;;;;0.10;0.10;;;16.80;81.30;;;;;;4947579;28;20054;-67
2022/07/01 07:36:54;;;;;;;0.10;0.10;;;16.80;82.50;;;;;;4946433;28;20046;-68
2022/07/01 07:39:20;;;;;;;0.10;0.10;;;16.80;82.00;;;;;;4946050;28;20039;-68
2022/07/01 07:41:46;;;;;;;0.40;0.15;;;16.80;81.90;;;;;;4945273;28;20316;-68
2022/07/01 07:44:11;;;;;;;0.20;0.10;;;16.70;81.50;;;;;;4942791;28;20070;-68
2022/07/01 07:46:37;;;;;;;0.20;0.20;;;16.70;81.50;;;;;;4944324;28;20035;-69
2022/07/01 07:49:03;;;;;;;0.75;0.10;;;16.70;81.70;;;;;;4944662;28;20418;-68
2022/07/01 07:51:28;;;;;;;1.08;0.20;;;16.70;81.50;;;;;;4945536;28;20039;-68
2022/07/01 07:53:54;;;;;;;0.10;0.10;;;16.70;82.70;;;;;;4944121;28;20058;-68
2022/07/01 07:56:20;;;;;;;0.10;0.10;;;16.60;82.00;;;;;;4943719;28;20346;-68
2022/07/01 07:58:46;;;;;;;0.20;0.08;;;16.60;82.00;;;;;;4943394;28;20047;-68
2022/07/01 08:01:11;;;;;;;0.40;0.20;;;16.60;82.20;;;;;;4943667;28;20038;-67
2022/07/01 08:03:37;;;;;;;0.57;0.10;;;16.70;82.50;;;;;;4944658;28;20094;-68
2022/07/01 08:06:03;;;;;;;0.98;0.10;;;16.70;82.40;;;;;;4951466;28;20031;-68
2022/07/01 08:08:29;;;;;;;0.00;0.00;;;16.70;82.70;;;;;;4950526;28;20070;-68
2022/07/01 08:10:54;;;;;;;0.75;0.30;;;16.70;83.10;;;;;;4948180;28;20059;-68
2022/07/01 08:13:20;;;;;;;0.00;0.00;;;16.80;83.30;;;;;;4950112;28;20039;-68
2022/07/01 08:15:46;;;;;;;1.00;0.10;;;16.80;83.20;;;;;;4948496;28;20031;-68
2022/07/01 08:18:11;;;;;;;0.10;0.00;;;16.90;83.10;;;;;;4945218;28;20035;-68
2022/07/01 08:20:37;;;;;;;0.10;0.10;;;17.00;82.80;;;;;;4947487;28;20082;-68
2022/07/01 08:23:02;;;;;;;0.10;0.05;;;17.00;82.70;;;;;;4950970;28;20415;-68
2022/07/01 08:25:28;;;;;;;0.10;0.10;;;17.10;82.40;;;;;;4949565;28;20086;-68
2022/07/01 08:27:54;;;;;;;0.30;0.10;;;17.10;82.20;;;;;;4949349;28;20039;-68
2022/07/01 08:30:19;;;;;;;0.17;0.10;;;17.20;82.10;;;;;;4947279;28;20044;-68
2022/07/01 08:32:45;;;;;;;0.10;0.00;;;17.20;81.90;;;;;;4949525;28;20035;-68
2022/07/01 08:35:11;;;;;;;0.57;0.20;;;17.30;81.00;;;;;;4948386;28;20123;-69
2022/07/01 08:37:36;;;;;;;0.22;0.10;;;17.30;81.70;;;;;;4950591;28;20031;-68
2022/07/01 08:40:03;;;;;;;0.05;0.05;;;17.40;81.10;;;;;;4950138;28;20455;-68
2022/07/01 08:42:28;;;;;;;0.00;0.00;;;17.40;80.70;;;;;;4948170;28;20039;-68
2022/07/01 08:44:54;;;;;;;0.10;0.10;;;17.40;80.80;;;;;;4950724;28;20039;-68
2022/07/01 08:47:20;;;;;;;0.10;0.10;;;17.50;80.90;;;;;;4948303;28;20254;-68
2022/07/01 08:49:45;;;;;;;0.10;0.00;;;17.50;80.90;;;;;;4947953;28;20039;-68
2022/07/01 08:52:11;;;;;;;0.10;0.10;;;17.50;81.70;;;;;;4947198;28;20042;-68
2022/07/01 08:54:38;;;;;;;0.15;0.00;;;17.60;80.70;;;;;;4950235;28;20039;-68
2022/07/01 08:57:04;;;;;;;0.10;0.10;;;17.60;80.50;;;;;;4949583;28;20465;-68
2022/07/01 08:59:30;;;;;;;0.30;0.05;;;17.60;80.60;;;;;;4949696;28;20102;-68
2022/07/01 09:01:59;;;;;;;0.10;0.10;;;17.70;80.10;;;;;;4948323;28;20039;-68
2022/07/01 09:04:25;;;;;;;0.03;0.03;;;17.70;79.50;;;;;;4947471;28;20443;-67
2022/07/01 09:06:50;;;;;;;0.10;0.10;;;17.70;79.70;;;;;;4950355;28;20051;-68
2022/07/01 09:09:20;;;;;;;1.17;0.10;;;17.70;80.10;;;;;;4949742;28;20066;-68
2022/07/01 09:11:54;;;;;;;0.10;0.10;;;17.70;80.00;;;;;;4944450;28;20041;-69
2022/07/01 09:14:31;;;;;;;0.03;0.00;;;17.70;79.30;;;;;;4948560;28;20035;-68
2022/07/01 09:16:59;;;;;;;0.10;0.10;;;17.70;80.50;;;;;;4947190;28;20069;-68
2022/07/01 09:19:26;;;;;;;0.00;0.00;;;17.70;78.90;;;;;;4949763;28;20035;-68
2022/07/01 09:22:00;;;;;;;0.00;0.00;;;17.60;78.70;;;;;;4946103;28;20126;-68
2022/07/01 09:24:31;;;;;;;0.00;0.00;;;17.50;78.90;;;;;;4947003;28;20418;-69
2022/07/01 09:26:59;;;;;;;0.13;0.00;;;17.40;79.20;;;;;;4948811;28;20067;-68
2022/07/01 09:29:34;;;;;;;0.05;0.00;;;17.40;79.60;;;;;;4948123;28;20066;-68
2022/07/01 09:32:02;;;;;;;0.35;0.00;;;17.30;80.30;;;;;;4949469;28;20074;-68
2022/07/01 09:34:39;;;;;;;0.10;0.00;;;17.20;80.30;;;;;;4946845;28;20537;-68
2022/07/01 09:37:05;;;;;;;0.00;0.00;;;17.20;80.90;;;;;;4947167;28;20521;-68
2022/07/01 09:39:44;;;;;;;0.65;0.03;;;17.10;80.80;;;;;;4946638;28;20059;-68
2022/07/01 09:42:10;;;;;;;0.10;0.10;;;17.10;81.00;;;;;;4946650;28;20041;-68
2022/07/01 09:44:50;;;;;;;0.63;0.10;;;17.00;81.10;;;;;;4947491;28;20035;-68
2022/07/01 09:47:16;;;;;;;0.35;0.10;;;17.00;81.30;;;;;;4946154;28;20606;-68
2022/07/01 09:49:42;;;;;;;0.30;0.10;;;17.00;81.20;;;;;;4947182;28;20126;-68
2022/07/01 09:52:08;;;;;;;0.10;0.10;;;17.00;81.50;;;;;;4946287;28;20047;-69
2022/07/01 09:54:35;;;;;;;0.25;0.10;;;17.00;81.70;;;;;;4947971;28;20045;-68
2022/07/01 09:57:00;;;;;;;0.10;0.10;;;17.00;81.80;;;;;;4947020;28;20083;-67
2022/07/01 09:59:26;;;;;;;0.35;0.10;;;17.00;81.90;;;;;;4945821;28;20047;-68
2022/07/01 10:01:51;;;;;;;0.00;0.00;;;17.00;82.00;;;;;;4948203;28;20110;-68
2022/07/01 10:04:18;;;;;;;0.10;0.10;;;17.00;81.80;;;;;;4949364;28;20051;-68
2022/07/01 10:07:02;;;;;;;0.20;0.00;;;17.00;81.50;;;;;;4947113;28;20047;-68
2022/07/01 10:09:58;;;;;;;0.20;0.15;;;17.10;81.50;;;;;;4945811;28;20039;-68
2022/07/01 10:12:23;;;;;;;0.40;0.10;;;17.10;83.40;;;;;;4940961;29;20388;-68
2022/07/01 10:14:50;;;;;;;0.13;0.00;;;17.10;81.80;;;;;;4946658;28;20063;-68
2022/07/01 10:17:28;;;;;;;0.25;0.00;;;17.10;81.90;;;;;;4946935;28;20046;-68
2022/07/01 10:19:56;;;;;;;0.00;0.00;;;17.20;81.30;;;;;;4945575;28;20039;-68
2022/07/01 10:22:28;;;;;;;0.20;0.10;;;17.20;81.40;;;;;;4947347;28;20031;-69
2022/07/01 10:24:54;;;;;;;0.13;0.10;;;17.20;81.90;;;;;;4947201;28;20039;-68
2022/07/01 10:27:24;;;;;;;0.03;0.03;;;17.30;81.70;;;;;;4945144;28;20035;-68
2022/07/01 10:30:15;;;;;;;0.20;0.03;;;17.30;81.60;;;;;;4944696;28;20142;-68
2022/07/01 10:32:51;;;;;;;0.00;0.00;;;17.40;81.70;;;;;;4946655;28;20050;-69
2022/07/01 10:35:16;;;;;;;0.00;0.00;;;17.40;80.90;;;;;;4944486;28;20035;-68
2022/07/01 10:38:01;;;;;;;0.28;0.00;;;17.50;81.20;;;;;;4946368;28;20525;-68
2022/07/01 10:40:53;;;;;;;0.10;0.10;;;17.50;83.10;;;;;;4945522;28;20039;-68
2022/07/01 10:43:32;;;;;;;0.43;0.00;;;17.60;83.30;;;;;;4947371;28;20035;-68
2022/07/01 10:45:58;;;;;;;0.10;0.10;;;17.70;81.60;;;;;;4946936;28;20038;-68
2022/07/01 10:48:24;;;;;;;0.10;0.00;;;17.70;80.80;;;;;;4946176;28;20446;-68
2022/07/01 10:50:51;;;;;;;0.10;0.10;;;17.70;80.80;;;;;;4944168;28;20055;-68
2022/07/01 10:53:17;;;;;;;0.22;0.10;;;17.70;80.50;;;;;;4946986;28;20046;-68
2022/07/01 10:55:53;;;;;;;0.13;0.10;;;17.70;80.10;;;;;;4944779;28;20446;-68
2022/07/01 10:58:35;;;;;;;0.15;0.10;;;17.70;79.80;;;;;;4949883;28;20090;-68
2022/07/01 11:01:00;;;;;;;0.20;0.05;;;17.70;80.30;;;;;;4945878;28;20126;-68
2022/07/01 11:03:26;;;;;;;0.40;0.20;;;17.70;80.90;;;;;;4945091;28;20749;-68
2022/07/01 11:05:55;;;;;;;0.05;0.00;;;17.70;80.60;;;;;;4944929;28;20557;-67
2022/07/01 11:08:21;;;;;;;0.00;0.00;;;17.60;79.80;;;;;;4945607;28;20031;-69
2022/07/01 11:10:51;;;;;;;0.10;0.00;;;17.60;79.40;;;;;;4941026;28;20626;-68
2022/07/01 11:13:18;;;;;;;0.00;0.00;;;17.60;80.00;;;;;;4945419;28;20082;-68
2022/07/01 11:15:48;;;;;;;0.35;0.10;;;17.50;80.30;;;;;;4946395;28;20098;-68
2022/07/01 11:18:16;;;;;;;1.27;0.10;;;17.50;80.40;;;;;;4946387;28;20039;-68
2022/07/01 11:20:41;;;;;;;0.10;0.10;;;17.50;80.10;;;;;;4944721;28;20042;-68
2022/07/01 11:23:07;;;;;;;0.10;0.00;;;17.40;80.20;;;;;;4943582;28;20047;-69
2022/07/01 11:25:33;;;;;;;0.00;0.00;;;17.50;80.50;;;;;;4948237;28;20427;-68
2022/07/01 11:27:59;;;;;;;0.05;0.05;;;17.50;80.50;;;;;;4944163;28;20066;-67
2022/07/01 11:30:25;;;;;;;0.28;0.00;;;17.50;80.50;;;;;;4943978;28;20035;-67
2022/07/01 11:32:54;;;;;;;0.17;0.00;;;17.40;80.90;;;;;;4945196;28;20047;-68
2022/07/01 11:40:57;;;;;;;0.00;0.00;;;17.40;80.40;;;;;;4945827;28;20222;-67
2022/07/01 11:43:29;;;;;;;0.32;0.08;;;17.40;80.30;;;;;;4945893;28;20387;-68
2022/07/01 11:45:57;;;;;;;0.03;0.03;;;17.30;80.50;;;;;;4945015;28;20065;-68
2022/07/01 11:48:50;;;;;;;1.55;0.10;;;17.30;80.40;;;;;;4945722;28;20095;-68
2022/07/01 11:51:18;;;;;;;0.10;0.10;;;17.30;81.00;;;;;;4943447;28;20043;-68
2022/07/01 11:53:45;;;;;;;0.10;0.00;;;17.30;80.90;;;;;;4945735;28;20102;-68
2022/07/01 11:56:12;;;;;;;0.35;0.10;;;17.30;80.80;;;;;;4942503;28;20027;-68
2022/07/01 11:58:52;;;;;;;0.17;0.10;;;17.40;81.30;;;;;;4947763;28;20276;-67
2022/07/01 12:01:39;;;;;;;0.10;0.10;;;17.40;83.10;;;;;;4946533;28;20046;-67
2022/07/01 12:04:07;;;;;;;0.30;0.30;;;17.50;82.70;;;;;;4946696;28;20027;-68
2022/07/01 12:06:34;;;;;;;0.30;0.30;;;17.60;82.80;;;;;;4945192;28;20057;-68
2022/07/01 12:09:00;;;;;;;0.20;0.20;;;17.60;81.90;;;;;;4946487;28;20518;-67
2022/07/01 12:11:28;;;;;;;0.10;0.10;;;17.60;81.70;;;;;;4940897;28;20189;-67
2022/07/01 12:13:56;;;;;;;0.20;0.20;;;17.60;81.50;;;;;;4945979;28;20078;-68
2022/07/01 12:16:22;;;;;;;0.20;0.20;;;17.70;81.30;;;;;;4944247;28;20078;-67
2022/07/01 12:19:02;;;;;;;0.20;0.20;;;17.70;81.50;;;;;;4944697;28;20039;-66
2022/07/01 12:21:29;;;;;;;0.30;0.30;;;17.80;81.90;;;;;;4944175;28;20086;-67
2022/07/01 12:24:08;;;;;;;0.77;0.40;;;17.80;81.40;;;;;;4946414;28;20458;-67
2022/07/01 12:26:34;;;;;;;0.20;0.20;;;17.80;81.90;;;;;;4945021;28;20098;-67
2022/07/01 12:29:00;;;;;;;0.95;0.25;;;17.80;81.20;;;;;;4944986;28;20043;-68
2022/07/01 12:31:26;;;;;;;0.28;0.28;;;17.80;82.20;;;;;;4943847;28;20039;-68
2022/07/01 12:33:52;;;;;;;0.47;0.38;;;17.80;81.60;;;;;;4943921;28;20168;-68
2022/07/01 12:36:18;;;;;;;0.20;0.20;;;17.80;81.60;;;;;;4944753;28;20122;-68
2022/07/01 12:38:44;;;;;;;0.40;0.40;;;17.80;81.70;;;;;;4946011;28;20126;-68
2022/07/01 12:41:30;;;;;;;0.77;0.68;;;17.80;81.60;;;;;;4945356;28;20679;-68
2022/07/01 12:43:56;;;;;;;0.45;0.40;;;17.80;81.90;;;;;;4945139;28;20267;-67
2022/07/01 12:46:31;;;;;;;0.43;0.43;;;17.80;81.30;;;;;;4946324;28;20151;-69
2022/07/01 12:48:58;;;;;;;1.67;0.40;;;17.80;81.90;;;;;;4945548;28;20415;-69
2022/07/01 12:51:33;;;;;;;0.63;0.63;;;17.80;81.70;;;;;;4946681;28;20498;-68
2022/07/01 12:53:59;;;;;;;0.73;0.60;;;17.80;82.30;;;;;;4949514;28;20055;-67
2022/07/01 12:56:27;;;;;;;0.57;0.57;;;17.90;82.00;;;;;;4945554;28;20027;-67
2022/07/01 12:58:54;;;;;;;0.50;0.50;;;17.90;81.80;;;;;;4949596;28;20035;-68
2022/07/01 13:01:21;;;;;;;0.63;0.50;;;17.80;81.50;;;;;;4947173;28;20058;-67
2022/07/01 13:03:47;;;;;;;0.47;0.40;;;17.90;81.90;;;;;;4948935;28;20032;-68
2022/07/01 13:06:13;;;;;;;0.38;0.38;;;17.90;82.00;;;;;;4949238;28;20502;-67